My Meet Scores
Tannistha Thumatti, CATS - MyMeetScores.com
Top100 | Top Teams | Upcoming Meets | Completed Meets | Latest | Add Scores | Help| Support | Bookmark and Share

Tannistha Thumatti, CATS
Personal Bests
LevelVault BarsBeamFloorAA
XB9.2008.700 8.3008.65034.700
XG9.3009.450 8.9009.15036.450
XS9.1509.200 9.3009.00035.625
Meet Scores
Date Meet Team Session Level Division Vault Bars Beam Floor AA
2022-11-19 Glastonbury Local CATS 3 XG 14 & Older 8.850 3 9.250 4 8.400 5T 9.000 2T 35.500 2
2022-11-19 Glastonbury Local CATS ALL XG All 8.850 6T 9.250 8T 8.400 11T 9.000 9* 35.500 11T
2022-04-02 2022 XG, XP, XD State Championships CATS 5 XG Sr A 8.500 30 7.600 56T 8.300 40T 9.050 32T 33.450 49T
2022-02-25 2022 February Flip Invite 3-10 Xcel CATS 3 XG 15 yrs. 9.300 6T 9.150 26T 8.850 28T 9.150 22T 36.450 21T
2022-01-15 Beauty The Beast 2022 CATS 5 XG Sr B 8.650 6T 8.425 8 8.900 1 8.775 6T 34.750 6
2021-12-17 2021 Thames Valley Christmas Classic CATS 10 XG Senior 8.700 7T 8.825 5 8.575 7T 8.700 7T 34.800 6
2021-12-10 New England Invitational CATS 7 XG 15 & Older 9.000 8T 9.450 4 8.700 8T 8.450 13 35.600 9
2021-11-05 Ro Carlucci Judges Cup To Go CATS 12 XG Junior B 9.150 1T 8.400 9 8.800 1T 8.600 9 34.950 5T
2020-03-07 Holiday Costume Cup 2020 CATS 03 XS Older 9.050 5T 8.100 12 9.300 3 8.600 12T 35.050 9T
2020-02-15 2/15/20-2/16/20 CT FVG In house Valentine Inv CATS 2 XS Sr B 9.000 5 9.000 6T 9.050 5T 8.100 11T 35.150 7
2020-01-24 2020 Kinetic Kids Invitational CATS 4 XS Sr B 8.700 5T 8.850 7 8.950 4 9.000 6T 35.500 6
2019-12-14 2019 Holiday Classic at University of Bridgep CATS 4 XS SR 9.150 2T 8.900 7T 8.200 13 7.600 13 33.850 12
2019-05-04 2019 CT XCEL Silver State Championship CATS 1 XS Sr A 9.050 8 9.025 9 9.100 5T 8.450 12 35.625 8
2019-03-02 2019 Holiday Costume Cup CATS 4 XS Junior 8.700 12 9.100 2 8.900 11T 8.600 10T 35.300 11
2019-02-09 2/9-2/10 CT Inhouse Valentines Invitational CATS 1 XS Older 8.500 12T 9.200 7T 9.100 7T 8.400 13 35.200 11
2019-01-18 DGS Northeast Invite CATS 8B XS Jr A 8.250 8T 9.050 7 9.100 8 8.750 11 35.150 9
2018-12-15 2018 Holiday Classic CATS 4 XS JR 9.000 2T 9.200 3T 8.500 4T 8.750 3 35.450 3
2018-05-05 2018 CT XCEL Silver State Championships CATS 2 XS Jr D 8.400 10T 8.700 15 8.450 14 8.600 15 34.150 14
2018-02-17 2/17,18/2018 CT Inhouse Valentine Invt CATS 2 XS Younger 8.650 12T 8.500 12T 8.650 6T 8.650 15 34.450 14
2018-01-12 DGS Invitational CATS 8B XS 10 yrs. 8.200 8 8.600 9T 8.200 11 8.000 11 33.000 11
2017-05-13 2017 Xcel Bronze Connecticut State Cup CATS 1 XB All Ages 9.200 24T 8.650 55 8.200 55T 8.650 54T 34.700 56T
2017-01-27 24th Annual American Invitational CATS 1A XB Junior 8.550 20 8.700 15T 8.300 17T 7.750 19T 33.300 19
2016-11-18 2016 Muriel Grossfeld Invitational CATS 5 XB Junior 8.650 3T 8.300 7 7.600 7 8.250 8 32.800 7
Get your scores on
a t-shirt, pin, or hoodie